sensor_id;sensor_type;location;lat;lon;timestamp;temperature;humidity
32296;DHT22;18781;51.550;5.418;2024-03-23T00:54:44;11.40;75.60
32296;DHT22;18781;51.550;5.418;2024-03-23T00:57:10;11.40;75.60
32296;DHT22;18781;51.550;5.418;2024-03-23T01:02:23;11.40;75.60
32296;DHT22;18781;51.550;5.418;2024-03-23T01:04:49;11.40;75.50
32296;DHT22;18781;51.550;5.418;2024-03-23T01:07:14;11.30;75.50
32296;DHT22;18781;51.550;5.418;2024-03-23T01:09:40;11.40;75.50
32296;DHT22;18781;51.550;5.418;2024-03-23T01:12:06;11.30;75.50
32296;DHT22;18781;51.550;5.418;2024-03-23T01:14:31;11.30;75.40
32296;DHT22;18781;51.550;5.418;2024-03-23T01:16:58;11.30;75.40
32296;DHT22;18781;51.550;5.418;2024-03-23T01:19:23;11.30;75.40
32296;DHT22;18781;51.550;5.418;2024-03-23T01:21:49;11.30;75.40
32296;DHT22;18781;51.550;5.418;2024-03-23T01:24:15;11.30;75.40
32296;DHT22;18781;51.550;5.418;2024-03-23T01:26:40;11.20;75.40
32296;DHT22;18781;51.550;5.418;2024-03-23T01:29:06;11.20;75.30
32296;DHT22;18781;51.550;5.418;2024-03-23T01:31:32;11.20;75.20
32296;DHT22;18781;51.550;5.418;2024-03-23T01:33:57;11.20;75.10
32296;DHT22;18781;51.550;5.418;2024-03-23T01:36:24;11.20;75.20
32296;DHT22;18781;51.550;5.418;2024-03-23T01:38:50;11.20;75.20
32296;DHT22;18781;51.550;5.418;2024-03-23T01:41:16;11.10;75.10
32296;DHT22;18781;51.550;5.418;2024-03-23T01:43:41;11.10;75.00
32296;DHT22;18781;51.550;5.418;2024-03-23T01:46:07;11.10;75.00
32296;DHT22;18781;51.550;5.418;2024-03-23T01:48:32;11.10;75.00
32296;DHT22;18781;51.550;5.418;2024-03-23T01:50:59;11.10;75.00
32296;DHT22;18781;51.550;5.418;2024-03-23T01:53:25;11.00;75.20
32296;DHT22;18781;51.550;5.418;2024-03-23T01:55:51;11.00;75.30
32296;DHT22;18781;51.550;5.418;2024-03-23T01:58:17;11.00;75.30
32296;DHT22;18781;51.550;5.418;2024-03-23T02:00:42;11.00;75.50
32296;DHT22;18781;51.550;5.418;2024-03-23T02:03:26;11.00;75.50
32296;DHT22;18781;51.550;5.418;2024-03-23T02:05:56;10.90;75.60
32296;DHT22;18781;51.550;5.418;2024-03-23T02:08:23;10.90;75.60
32296;DHT22;18781;51.550;5.418;2024-03-23T02:10:49;10.90;75.60
32296;DHT22;18781;51.550;5.418;2024-03-23T02:13:17;10.80;75.70
32296;DHT22;18781;51.550;5.418;2024-03-23T02:15:42;10.80;75.80
32296;DHT22;18781;51.550;5.418;2024-03-23T02:18:08;10.80;75.90
32296;DHT22;18781;51.550;5.418;2024-03-23T02:20:35;10.80;76.00
32296;DHT22;18781;51.550;5.418;2024-03-23T02:23:00;10.80;76.00
32296;DHT22;18781;51.550;5.418;2024-03-23T02:25:26;10.80;76.10
32296;DHT22;18781;51.550;5.418;2024-03-23T02:27:52;10.80;76.10
32296;DHT22;18781;51.550;5.418;2024-03-23T02:30:19;10.80;76.30
32296;DHT22;18781;51.550;5.418;2024-03-23T02:32:45;10.80;76.30
32296;DHT22;18781;51.550;5.418;2024-03-23T02:35:11;10.80;76.30
32296;DHT22;18781;51.550;5.418;2024-03-23T02:37:37;10.80;76.40
32296;DHT22;18781;51.550;5.418;2024-03-23T02:40:03;10.80;76.40
32296;DHT22;18781;51.550;5.418;2024-03-23T02:42:28;10.80;76.40
32296;DHT22;18781;51.550;5.418;2024-03-23T02:44:54;10.80;76.40
32296;DHT22;18781;51.550;5.418;2024-03-23T02:47:20;10.80;76.40
32296;DHT22;18781;51.550;5.418;2024-03-23T02:49:45;10.80;76.40
32296;DHT22;18781;51.550;5.418;2024-03-23T02:52:11;10.80;76.40
32296;DHT22;18781;51.550;5.418;2024-03-23T02:54:37;10.80;76.50
32296;DHT22;18781;51.550;5.418;2024-03-23T02:57:03;10.80;76.60
32296;DHT22;18781;51.550;5.418;2024-03-23T02:59:28;10.80;76.60
32296;DHT22;18781;51.550;5.418;2024-03-23T03:01:54;10.80;76.60
32296;DHT22;18781;51.550;5.418;2024-03-23T03:04:20;10.80;76.60
32296;DHT22;18781;51.550;5.418;2024-03-23T03:06:48;10.80;76.50
32296;DHT22;18781;51.550;5.418;2024-03-23T03:09:14;10.80;77.10
32296;DHT22;18781;51.550;5.418;2024-03-23T03:11:40;10.80;76.40
32296;DHT22;18781;51.550;5.418;2024-03-23T03:14:06;10.80;76.40
32296;DHT22;18781;51.550;5.418;2024-03-23T03:16:33;10.80;76.40
32296;DHT22;18781;51.550;5.418;2024-03-23T03:18:59;10.80;76.30
32296;DHT22;18781;51.550;5.418;2024-03-23T03:21:24;10.80;76.20
32296;DHT22;18781;51.550;5.418;2024-03-23T03:23:50;10.80;76.10
32296;DHT22;18781;51.550;5.418;2024-03-23T03:26:16;10.80;75.70
32296;DHT22;18781;51.550;5.418;2024-03-23T03:28:43;10.80;75.50
32296;DHT22;18781;51.550;5.418;2024-03-23T03:31:09;10.70;75.50
32296;DHT22;18781;51.550;5.418;2024-03-23T03:33:35;10.70;75.40
32296;DHT22;18781;51.550;5.418;2024-03-23T03:36:00;10.70;75.30
32296;DHT22;18781;51.550;5.418;2024-03-23T03:38:26;10.60;75.20
32296;DHT22;18781;51.550;5.418;2024-03-23T03:40:51;10.60;75.20
32296;DHT22;18781;51.550;5.418;2024-03-23T03:43:20;10.60;75.10
32296;DHT22;18781;51.550;5.418;2024-03-23T03:45:57;10.60;75.10
32296;DHT22;18781;51.550;5.418;2024-03-23T03:48:23;10.50;75.00
32296;DHT22;18781;51.550;5.418;2024-03-23T03:50:49;10.50;75.00
32296;DHT22;18781;51.550;5.418;2024-03-23T03:53:15;10.50;74.90
32296;DHT22;18781;51.550;5.418;2024-03-23T03:55:40;10.40;74.80
32296;DHT22;18781;51.550;5.418;2024-03-23T03:58:06;10.40;74.80
32296;DHT22;18781;51.550;5.418;2024-03-23T04:00:31;10.40;74.80
32296;DHT22;18781;51.550;5.418;2024-03-23T04:02:57;10.30;74.80
32296;DHT22;18781;51.550;5.418;2024-03-23T04:05:23;10.30;74.80
32296;DHT22;18781;51.550;5.418;2024-03-23T04:07:49;10.30;74.70
32296;DHT22;18781;51.550;5.418;2024-03-23T04:10:15;10.30;74.80
32296;DHT22;18781;51.550;5.418;2024-03-23T04:12:41;10.20;74.70
32296;DHT22;18781;51.550;5.418;2024-03-23T04:15:07;10.20;74.70
32296;DHT22;18781;51.550;5.418;2024-03-23T04:17:33;10.20;74.60
32296;DHT22;18781;51.550;5.418;2024-03-23T04:20:00;10.20;74.70
32296;DHT22;18781;51.550;5.418;2024-03-23T04:22:27;10.10;74.70
32296;DHT22;18781;51.550;5.418;2024-03-23T04:24:53;10.10;74.70
32296;DHT22;18781;51.550;5.418;2024-03-23T04:27:19;10.00;75.20
32296;DHT22;18781;51.550;5.418;2024-03-23T04:29:51;10.00;74.70
32296;DHT22;18781;51.550;5.418;2024-03-23T04:32:17;10.00;74.80
32296;DHT22;18781;51.550;5.418;2024-03-23T04:34:43;10.00;74.90
32296;DHT22;18781;51.550;5.418;2024-03-23T04:37:09;9.90;74.80
32296;DHT22;18781;51.550;5.418;2024-03-23T04:39:36;9.90;74.90
32296;DHT22;18781;51.550;5.418;2024-03-23T04:42:02;9.90;74.80
32296;DHT22;18781;51.550;5.418;2024-03-23T04:44:28;9.90;74.80
32296;DHT22;18781;51.550;5.418;2024-03-23T04:46:54;9.80;74.80
32296;DHT22;18781;51.550;5.418;2024-03-23T04:49:19;9.80;75.40
32296;DHT22;18781;51.550;5.418;2024-03-23T04:51:45;9.80;74.90
32296;DHT22;18781;51.550;5.418;2024-03-23T04:54:14;9.80;74.80
32296;DHT22;18781;51.550;5.418;2024-03-23T04:56:40;9.70;75.40
32296;DHT22;18781;51.550;5.418;2024-03-23T04:59:06;9.70;74.90
32296;DHT22;18781;51.550;5.418;2024-03-23T05:01:32;9.70;74.90
32296;DHT22;18781;51.550;5.418;2024-03-23T05:03:58;9.70;75.00
32296;DHT22;18781;51.550;5.418;2024-03-23T05:06:24;9.60;75.00
32296;DHT22;18781;51.550;5.418;2024-03-23T05:08:50;9.60;75.10
32296;DHT22;18781;51.550;5.418;2024-03-23T05:11:15;9.60;75.20
32296;DHT22;18781;51.550;5.418;2024-03-23T05:13:41;9.60;75.30
32296;DHT22;18781;51.550;5.418;2024-03-23T05:16:07;9.50;75.30
32296;DHT22;18781;51.550;5.418;2024-03-23T05:18:34;9.50;75.30
32296;DHT22;18781;51.550;5.418;2024-03-23T05:21:00;9.50;75.40
32296;DHT22;18781;51.550;5.418;2024-03-23T05:23:26;9.50;75.40
32296;DHT22;18781;51.550;5.418;2024-03-23T05:25:53;9.50;75.40
32296;DHT22;18781;51.550;5.418;2024-03-23T05:28:18;9.50;75.40
32296;DHT22;18781;51.550;5.418;2024-03-23T05:30:53;9.40;75.40
32296;DHT22;18781;51.550;5.418;2024-03-23T05:33:19;9.40;75.60
32296;DHT22;18781;51.550;5.418;2024-03-23T05:35:45;9.40;75.50
32296;DHT22;18781;51.550;5.418;2024-03-23T05:38:11;9.40;75.50
32296;DHT22;18781;51.550;5.418;2024-03-23T05:40:36;9.40;75.70
32296;DHT22;18781;51.550;5.418;2024-03-23T05:43:06;9.40;75.60
32296;DHT22;18781;51.550;5.418;2024-03-23T05:45:31;9.30;75.60
32296;DHT22;18781;51.550;5.418;2024-03-23T05:47:57;9.30;75.70
32296;DHT22;18781;51.550;5.418;2024-03-23T05:50:23;9.30;75.80
32296;DHT22;18781;51.550;5.418;2024-03-23T05:52:49;9.30;75.90
32296;DHT22;18781;51.550;5.418;2024-03-23T05:55:15;9.30;76.00
32296;DHT22;18781;51.550;5.418;2024-03-23T05:57:41;9.30;76.00
32296;DHT22;18781;51.550;5.418;2024-03-23T06:00:07;9.30;76.50
32296;DHT22;18781;51.550;5.418;2024-03-23T06:02:44;9.20;76.00
32296;DHT22;18781;51.550;5.418;2024-03-23T06:05:11;9.20;76.00
32296;DHT22;18781;51.550;5.418;2024-03-23T06:07:38;9.30;76.10
32296;DHT22;18781;51.550;5.418;2024-03-23T06:10:07;9.20;76.00
32296;DHT22;18781;51.550;5.418;2024-03-23T06:12:32;9.20;76.00
32296;DHT22;18781;51.550;5.418;2024-03-23T06:14:58;9.20;76.10
32296;DHT22;18781;51.550;5.418;2024-03-23T06:17:23;9.20;75.80
32296;DHT22;18781;51.550;5.418;2024-03-23T06:19:49;9.20;76.00
32296;DHT22;18781;51.550;5.418;2024-03-23T06:22:15;9.20;76.10
32296;DHT22;18781;51.550;5.418;2024-03-23T06:24:41;9.20;76.30
32296;DHT22;18781;51.550;5.418;2024-03-23T06:27:06;9.20;76.40
32296;DHT22;18781;51.550;5.418;2024-03-23T06:29:32;9.20;76.50
32296;DHT22;18781;51.550;5.418;2024-03-23T06:31:58;9.20;76.60
32296;DHT22;18781;51.550;5.418;2024-03-23T06:34:24;9.20;76.50
32296;DHT22;18781;51.550;5.418;2024-03-23T06:36:50;9.20;76.50
32296;DHT22;18781;51.550;5.418;2024-03-23T06:39:16;9.30;76.60
32296;DHT22;18781;51.550;5.418;2024-03-23T06:41:42;9.30;76.50
32296;DHT22;18781;51.550;5.418;2024-03-23T06:44:08;9.30;76.50
32296;DHT22;18781;51.550;5.418;2024-03-23T06:46:39;9.30;76.50
32296;DHT22;18781;51.550;5.418;2024-03-23T06:49:05;9.30;76.60
32296;DHT22;18781;51.550;5.418;2024-03-23T06:51:32;9.40;76.70
32296;DHT22;18781;51.550;5.418;2024-03-23T06:53:57;9.40;76.70
32296;DHT22;18781;51.550;5.418;2024-03-23T06:56:26;9.40;76.50
32296;DHT22;18781;51.550;5.418;2024-03-23T06:58:51;9.50;76.20
32296;DHT22;18781;51.550;5.418;2024-03-23T07:01:17;9.50;75.40
32296;DHT22;18781;51.550;5.418;2024-03-23T07:03:46;9.50;75.40
32296;DHT22;18781;51.550;5.418;2024-03-23T07:06:11;9.50;75.20
32296;DHT22;18781;51.550;5.418;2024-03-23T07:08:37;9.60;75.30
32296;DHT22;18781;51.550;5.418;2024-03-23T07:11:02;9.60;75.30
32296;DHT22;18781;51.550;5.418;2024-03-23T07:13:28;9.60;75.30
32296;DHT22;18781;51.550;5.418;2024-03-23T07:15:54;9.60;75.40
32296;DHT22;18781;51.550;5.418;2024-03-23T07:18:24;9.70;75.40
32296;DHT22;18781;51.550;5.418;2024-03-23T07:20:56;9.70;75.20
32296;DHT22;18781;51.550;5.418;2024-03-23T07:23:22;9.70;75.10
32296;DHT22;18781;51.550;5.418;2024-03-23T07:26:00;9.70;75.10
32296;DHT22;18781;51.550;5.418;2024-03-23T07:28:26;9.70;75.20
32296;DHT22;18781;51.550;5.418;2024-03-23T07:31:09;9.80;75.40
32296;DHT22;18781;51.550;5.418;2024-03-23T07:33:37;9.80;75.50
32296;DHT22;18781;51.550;5.418;2024-03-23T07:36:03;9.80;75.40
32296;DHT22;18781;51.550;5.418;2024-03-23T07:38:29;9.80;75.50
32296;DHT22;18781;51.550;5.418;2024-03-23T07:41:10;9.90;75.80
32296;DHT22;18781;51.550;5.418;2024-03-23T07:43:37;9.90;76.00
32296;DHT22;18781;51.550;5.418;2024-03-23T07:46:03;9.90;75.60
32296;DHT22;18781;51.550;5.418;2024-03-23T07:48:29;10.00;75.70
32296;DHT22;18781;51.550;5.418;2024-03-23T07:51:03;10.00;75.90
32296;DHT22;18781;51.550;5.418;2024-03-23T07:53:30;10.10;75.90
32296;DHT22;18781;51.550;5.418;2024-03-23T07:58:26;10.20;76.00
32296;DHT22;18781;51.550;5.418;2024-03-23T08:00:56;10.20;76.00
32296;DHT22;18781;51.550;5.418;2024-03-23T08:03:22;10.30;76.30
32296;DHT22;18781;51.550;5.418;2024-03-23T08:05:48;10.30;76.20
32296;DHT22;18781;51.550;5.418;2024-03-23T08:08:14;10.40;76.20
32296;DHT22;18781;51.550;5.418;2024-03-23T08:10:50;10.40;76.20
32296;DHT22;18781;51.550;5.418;2024-03-23T08:13:16;10.50;76.30
32296;DHT22;18781;51.550;5.418;2024-03-23T08:15:42;10.60;76.20
32296;DHT22;18781;51.550;5.418;2024-03-23T08:18:08;10.60;76.00
32296;DHT22;18781;51.550;5.418;2024-03-23T08:20:33;10.70;75.90
32296;DHT22;18781;51.550;5.418;2024-03-23T08:22:59;10.70;75.70
32296;DHT22;18781;51.550;5.418;2024-03-23T08:25:25;10.80;75.70
32296;DHT22;18781;51.550;5.418;2024-03-23T08:27:50;10.80;75.80
32296;DHT22;18781;51.550;5.418;2024-03-23T08:30:16;10.90;75.70
32296;DHT22;18781;51.550;5.418;2024-03-23T08:32:42;10.90;75.30
32296;DHT22;18781;51.550;5.418;2024-03-23T08:35:08;11.00;75.10
32296;DHT22;18781;51.550;5.418;2024-03-23T08:37:34;11.10;74.60
32296;DHT22;18781;51.550;5.418;2024-03-23T08:39:59;11.10;73.80
32296;DHT22;18781;51.550;5.418;2024-03-23T08:42:25;11.20;73.40
32296;DHT22;18781;51.550;5.418;2024-03-23T08:44:51;11.20;72.90
32296;DHT22;18781;51.550;5.418;2024-03-23T08:47:16;11.20;73.00
32296;DHT22;18781;51.550;5.418;2024-03-23T08:49:42;11.30;72.70
32296;DHT22;18781;51.550;5.418;2024-03-23T08:52:08;11.30;72.50
32296;DHT22;18781;51.550;5.418;2024-03-23T08:54:34;11.40;72.40
32296;DHT22;18781;51.550;5.418;2024-03-23T08:57:00;11.40;72.20
32296;DHT22;18781;51.550;5.418;2024-03-23T08:59:25;11.40;72.50
32296;DHT22;18781;51.550;5.418;2024-03-23T09:01:51;11.50;71.90
32296;DHT22;18781;51.550;5.418;2024-03-23T09:04:17;11.50;71.50
32296;DHT22;18781;51.550;5.418;2024-03-23T09:06:43;11.60;70.20
32296;DHT22;18781;51.550;5.418;2024-03-23T09:09:09;11.60;70.40
32296;DHT22;18781;51.550;5.418;2024-03-23T09:11:35;11.60;69.80
32296;DHT22;18781;51.550;5.418;2024-03-23T09:14:00;11.50;69.60
32296;DHT22;18781;51.550;5.418;2024-03-23T09:16:26;11.50;69.20
32296;DHT22;18781;51.550;5.418;2024-03-23T09:18:52;11.50;69.00
32296;DHT22;18781;51.550;5.418;2024-03-23T09:21:18;11.40;69.30
32296;DHT22;18781;51.550;5.418;2024-03-23T09:23:44;11.30;69.30
32296;DHT22;18781;51.550;5.418;2024-03-23T09:26:10;11.30;69.50
32296;DHT22;18781;51.550;5.418;2024-03-23T09:28:35;11.30;69.60
32296;DHT22;18781;51.550;5.418;2024-03-23T09:31:05;11.20;70.10
32296;DHT22;18781;51.550;5.418;2024-03-23T09:33:32;11.20;70.20
32296;DHT22;18781;51.550;5.418;2024-03-23T09:35:58;11.20;70.80
32296;DHT22;18781;51.550;5.418;2024-03-23T09:38:28;11.20;70.90
32296;DHT22;18781;51.550;5.418;2024-03-23T09:40:53;11.20;71.00
32296;DHT22;18781;51.550;5.418;2024-03-23T09:43:19;11.30;70.90
32296;DHT22;18781;51.550;5.418;2024-03-23T09:45:46;11.40;71.30
32296;DHT22;18781;51.550;5.418;2024-03-23T09:48:12;11.40;70.70
32296;DHT22;18781;51.550;5.418;2024-03-23T09:50:39;11.50;70.40
32296;DHT22;18781;51.550;5.418;2024-03-23T09:53:07;11.50;69.90
32296;DHT22;18781;51.550;5.418;2024-03-23T09:55:33;11.60;70.00
32296;DHT22;18781;51.550;5.418;2024-03-23T09:58:01;11.60;70.60
32296;DHT22;18781;51.550;5.418;2024-03-23T10:00:27;11.70;70.20
32296;DHT22;18781;51.550;5.418;2024-03-23T10:02:55;11.80;70.40
32296;DHT22;18781;51.550;5.418;2024-03-23T10:05:22;11.90;70.20
32296;DHT22;18781;51.550;5.418;2024-03-23T10:07:53;12.00;69.20
32296;DHT22;18781;51.550;5.418;2024-03-23T10:10:18;12.10;68.20
32296;DHT22;18781;51.550;5.418;2024-03-23T10:12:48;12.20;67.90
32296;DHT22;18781;51.550;5.418;2024-03-23T10:15:21;12.20;68.40
32296;DHT22;18781;51.550;5.418;2024-03-23T10:17:47;12.30;68.20
32296;DHT22;18781;51.550;5.418;2024-03-23T10:20:13;12.40;67.50
32296;DHT22;18781;51.550;5.418;2024-03-23T10:22:38;12.40;67.30
32296;DHT22;18781;51.550;5.418;2024-03-23T10:25:09;12.50;67.30
32296;DHT22;18781;51.550;5.418;2024-03-23T10:27:34;12.60;67.10
32296;DHT22;18781;51.550;5.418;2024-03-23T10:30:14;12.60;66.70
32296;DHT22;18781;51.550;5.418;2024-03-23T10:32:42;12.70;66.20
32296;DHT22;18781;51.550;5.418;2024-03-23T10:35:21;12.70;66.80
32296;DHT22;18781;51.550;5.418;2024-03-23T10:37:51;12.80;66.50
32296;DHT22;18781;51.550;5.418;2024-03-23T10:40:19;12.90;62.90
32296;DHT22;18781;51.550;5.418;2024-03-23T10:42:44;12.80;63.00
32296;DHT22;18781;51.550;5.418;2024-03-23T10:45:10;12.70;63.80
32296;DHT22;18781;51.550;5.418;2024-03-23T10:47:37;12.50;64.50
32296;DHT22;18781;51.550;5.418;2024-03-23T10:50:03;12.40;65.60
32296;DHT22;18781;51.550;5.418;2024-03-23T10:52:31;12.30;66.20
32296;DHT22;18781;51.550;5.418;2024-03-23T10:54:57;12.30;67.20
32296;DHT22;18781;51.550;5.418;2024-03-23T10:57:30;12.20;67.50
32296;DHT22;18781;51.550;5.418;2024-03-23T10:59:57;12.20;68.30
32296;DHT22;18781;51.550;5.418;2024-03-23T11:02:23;12.20;68.60
32296;DHT22;18781;51.550;5.418;2024-03-23T11:04:48;12.30;68.40
32296;DHT22;18781;51.550;5.418;2024-03-23T11:07:29;12.20;67.70
32296;DHT22;18781;51.550;5.418;2024-03-23T11:09:56;12.30;67.40
32296;DHT22;18781;51.550;5.418;2024-03-23T11:15:05;12.30;68.30
32296;DHT22;18781;51.550;5.418;2024-03-23T11:17:32;12.30;68.50
32296;DHT22;18781;51.550;5.418;2024-03-23T11:20:02;12.40;68.60
32296;DHT22;18781;51.550;5.418;2024-03-23T11:25:15;12.60;67.30
32296;DHT22;18781;51.550;5.418;2024-03-23T11:27:42;12.60;67.30
32296;DHT22;18781;51.550;5.418;2024-03-23T11:30:21;12.80;65.80
32296;DHT22;18781;51.550;5.418;2024-03-23T11:32:48;12.80;64.80
32296;DHT22;18781;51.550;5.418;2024-03-23T11:38:15;12.90;64.50
32296;DHT22;18781;51.550;5.418;2024-03-23T11:40:50;13.00;63.70
32296;DHT22;18781;51.550;5.418;2024-03-23T11:43:17;13.00;63.50
32296;DHT22;18781;51.550;5.418;2024-03-23T11:45:51;13.00;62.40
32296;DHT22;18781;51.550;5.418;2024-03-23T11:48:22;13.00;63.00
32296;DHT22;18781;51.550;5.418;2024-03-23T11:50:50;13.00;60.30
32296;DHT22;18781;51.550;5.418;2024-03-23T11:53:18;13.00;60.30
32296;DHT22;18781;51.550;5.418;2024-03-23T11:55:51;13.00;60.50
32296;DHT22;18781;51.550;5.418;2024-03-23T11:58:19;13.00;59.50
32296;DHT22;18781;51.550;5.418;2024-03-23T12:00:57;13.00;60.00
32296;DHT22;18781;51.550;5.418;2024-03-23T12:03:24;13.00;59.60
32296;DHT22;18781;51.550;5.418;2024-03-23T12:06:03;13.00;59.30
32296;DHT22;18781;51.550;5.418;2024-03-23T12:11:11;12.90;59.80
32296;DHT22;18781;51.550;5.418;2024-03-23T12:13:38;12.90;59.90
32296;DHT22;18781;51.550;5.418;2024-03-23T12:16:18;12.80;59.70
32296;DHT22;18781;51.550;5.418;2024-03-23T12:18:46;12.70;60.00
32296;DHT22;18781;51.550;5.418;2024-03-23T12:21:13;12.80;60.30
32296;DHT22;18781;51.550;5.418;2024-03-23T12:23:41;12.70;60.80
32296;DHT22;18781;51.550;5.418;2024-03-23T12:26:09;12.70;61.40
32296;DHT22;18781;51.550;5.418;2024-03-23T12:28:35;12.70;61.30
32296;DHT22;18781;51.550;5.418;2024-03-23T12:31:01;12.80;62.10
32296;DHT22;18781;51.550;5.418;2024-03-23T12:33:26;12.80;61.90
32296;DHT22;18781;51.550;5.418;2024-03-23T12:35:52;12.80;61.30
32296;DHT22;18781;51.550;5.418;2024-03-23T12:38:19;12.90;61.50
32296;DHT22;18781;51.550;5.418;2024-03-23T12:40:49;12.90;62.10
32296;DHT22;18781;51.550;5.418;2024-03-23T12:43:15;12.80;62.20
32296;DHT22;18781;51.550;5.418;2024-03-23T12:45:41;12.80;61.50
32296;DHT22;18781;51.550;5.418;2024-03-23T12:48:07;12.80;61.30
32296;DHT22;18781;51.550;5.418;2024-03-23T12:50:33;12.70;61.20
32296;DHT22;18781;51.550;5.418;2024-03-23T12:52:58;12.70;61.60
32296;DHT22;18781;51.550;5.418;2024-03-23T12:55:24;12.60;61.60
32296;DHT22;18781;51.550;5.418;2024-03-23T12:57:50;12.50;61.60
32296;DHT22;18781;51.550;5.418;2024-03-23T13:00:15;12.50;61.50
32296;DHT22;18781;51.550;5.418;2024-03-23T13:02:42;12.40;60.90
32296;DHT22;18781;51.550;5.418;2024-03-23T13:05:08;12.40;61.10
32296;DHT22;18781;51.550;5.418;2024-03-23T13:07:36;12.30;62.00
32296;DHT22;18781;51.550;5.418;2024-03-23T13:10:04;12.30;61.70
32296;DHT22;18781;51.550;5.418;2024-03-23T13:12:30;12.30;61.60
32296;DHT22;18781;51.550;5.418;2024-03-23T13:14:56;12.30;62.10
32296;DHT22;18781;51.550;5.418;2024-03-23T13:17:22;12.30;62.40
32296;DHT22;18781;51.550;5.418;2024-03-23T13:19:47;12.40;62.10
32296;DHT22;18781;51.550;5.418;2024-03-23T13:22:13;12.40;62.20
32296;DHT22;18781;51.550;5.418;2024-03-23T13:24:38;12.40;62.80
32296;DHT22;18781;51.550;5.418;2024-03-23T13:27:04;12.40;62.80
32296;DHT22;18781;51.550;5.418;2024-03-23T13:29:34;12.50;63.60
32296;DHT22;18781;51.550;5.418;2024-03-23T13:32:06;12.50;62.60
32296;DHT22;18781;51.550;5.418;2024-03-23T13:34:32;12.60;61.80
32296;DHT22;18781;51.550;5.418;2024-03-23T13:36:58;12.60;61.20
32296;DHT22;18781;51.550;5.418;2024-03-23T13:39:25;12.60;61.10
32296;DHT22;18781;51.550;5.418;2024-03-23T13:41:52;12.60;60.60
32296;DHT22;18781;51.550;5.418;2024-03-23T13:44:18;12.60;60.90
32296;DHT22;18781;51.550;5.418;2024-03-23T13:46:43;12.60;60.40
32296;DHT22;18781;51.550;5.418;2024-03-23T13:49:25;12.60;60.30
32296;DHT22;18781;51.550;5.418;2024-03-23T13:51:52;12.60;60.70
32296;DHT22;18781;51.550;5.418;2024-03-23T13:54:17;12.50;60.80
32296;DHT22;18781;51.550;5.418;2024-03-23T13:56:43;12.50;61.30
32296;DHT22;18781;51.550;5.418;2024-03-23T13:59:09;12.60;61.40
32296;DHT22;18781;51.550;5.418;2024-03-23T14:01:35;12.60;61.40
32296;DHT22;18781;51.550;5.418;2024-03-23T14:04:01;12.60;61.70
32296;DHT22;18781;51.550;5.418;2024-03-23T14:06:26;12.60;61.80
32296;DHT22;18781;51.550;5.418;2024-03-23T14:08:52;12.60;62.10
32296;DHT22;18781;51.550;5.418;2024-03-23T14:11:18;12.60;62.40
32296;DHT22;18781;51.550;5.418;2024-03-23T14:13:44;12.70;62.50
32296;DHT22;18781;51.550;5.418;2024-03-23T14:16:10;12.70;62.80
32296;DHT22;18781;51.550;5.418;2024-03-23T14:18:36;12.70;63.10
32296;DHT22;18781;51.550;5.418;2024-03-23T14:21:02;12.80;63.50
32296;DHT22;18781;51.550;5.418;2024-03-23T14:23:28;12.80;63.50
32296;DHT22;18781;51.550;5.418;2024-03-23T14:26:03;12.90;63.40
32296;DHT22;18781;51.550;5.418;2024-03-23T14:28:29;12.90;63.10
32296;DHT22;18781;51.550;5.418;2024-03-23T14:30:55;12.90;63.10
32296;DHT22;18781;51.550;5.418;2024-03-23T14:33:21;12.90;62.50
32296;DHT22;18781;51.550;5.418;2024-03-23T14:35:53;12.90;61.70
32296;DHT22;18781;51.550;5.418;2024-03-23T14:38:21;12.80;61.30
32296;DHT22;18781;51.550;5.418;2024-03-23T14:40:46;12.80;60.90
32296;DHT22;18781;51.550;5.418;2024-03-23T14:43:12;12.60;60.80
32296;DHT22;18781;51.550;5.418;2024-03-23T14:46:06;12.60;61.00
32296;DHT22;18781;51.550;5.418;2024-03-23T14:48:32;12.40;61.70
32296;DHT22;18781;51.550;5.418;2024-03-23T14:50:59;12.40;62.40
32296;DHT22;18781;51.550;5.418;2024-03-23T14:53:26;12.40;63.00
32296;DHT22;18781;51.550;5.418;2024-03-23T14:55:55;12.30;63.20
32296;DHT22;18781;51.550;5.418;2024-03-23T14:58:20;12.30;63.60
32296;DHT22;18781;51.550;5.418;2024-03-23T15:00:46;12.30;61.50
32296;DHT22;18781;51.550;5.418;2024-03-23T15:03:12;12.20;60.20
32296;DHT22;18781;51.550;5.418;2024-03-23T15:05:37;12.10;59.80
32296;DHT22;18781;51.550;5.418;2024-03-23T15:08:03;11.90;60.20
32296;DHT22;18781;51.550;5.418;2024-03-23T15:10:29;11.80;60.20
32296;DHT22;18781;51.550;5.418;2024-03-23T15:12:54;11.60;61.00
32296;DHT22;18781;51.550;5.418;2024-03-23T15:15:20;11.50;61.60
32296;DHT22;18781;51.550;5.418;2024-03-23T15:17:46;11.40;62.00
32296;DHT22;18781;51.550;5.418;2024-03-23T15:20:11;11.30;62.60
32296;DHT22;18781;51.550;5.418;2024-03-23T15:22:37;11.20;63.00
32296;DHT22;18781;51.550;5.418;2024-03-23T15:25:03;11.20;62.60
32296;DHT22;18781;51.550;5.418;2024-03-23T15:27:29;11.20;62.50
32296;DHT22;18781;51.550;5.418;2024-03-23T15:29:56;11.10;62.70
32296;DHT22;18781;51.550;5.418;2024-03-23T15:32:23;11.00;62.80
32296;DHT22;18781;51.550;5.418;2024-03-23T15:34:48;11.00;63.00
32296;DHT22;18781;51.550;5.418;2024-03-23T15:37:14;10.90;63.10
32296;DHT22;18781;51.550;5.418;2024-03-23T15:39:40;10.80;63.10
32296;DHT22;18781;51.550;5.418;2024-03-23T15:42:07;10.80;63.40
32296;DHT22;18781;51.550;5.418;2024-03-23T15:44:32;10.70;63.60
32296;DHT22;18781;51.550;5.418;2024-03-23T15:46:58;10.60;63.70
32296;DHT22;18781;51.550;5.418;2024-03-23T15:49:24;10.60;63.90
32296;DHT22;18781;51.550;5.418;2024-03-23T15:51:50;10.50;64.20
32296;DHT22;18781;51.550;5.418;2024-03-23T15:54:15;10.40;64.60
32296;DHT22;18781;51.550;5.418;2024-03-23T15:56:41;10.40;64.70
32296;DHT22;18781;51.550;5.418;2024-03-23T15:59:06;10.30;64.80
32296;DHT22;18781;51.550;5.418;2024-03-23T16:01:33;10.30;64.60
32296;DHT22;18781;51.550;5.418;2024-03-23T16:04:03;10.30;64.60
32296;DHT22;18781;51.550;5.418;2024-03-23T16:06:28;10.20;64.70
32296;DHT22;18781;51.550;5.418;2024-03-23T16:08:54;10.20;64.90
32296;DHT22;18781;51.550;5.418;2024-03-23T16:11:19;10.10;65.00
32296;DHT22;18781;51.550;5.418;2024-03-23T16:13:46;10.10;65.00
32296;DHT22;18781;51.550;5.418;2024-03-23T16:16:12;10.10;65.30
32296;DHT22;18781;51.550;5.418;2024-03-23T16:18:38;10.00;65.60
32296;DHT22;18781;51.550;5.418;2024-03-23T16:21:07;10.00;65.90
32296;DHT22;18781;51.550;5.418;2024-03-23T16:23:34;10.00;65.80
32296;DHT22;18781;51.550;5.418;2024-03-23T16:26:00;10.00;66.00
32296;DHT22;18781;51.550;5.418;2024-03-23T16:28:27;10.00;66.20
32296;DHT22;18781;51.550;5.418;2024-03-23T16:31:03;10.00;66.20
32296;DHT22;18781;51.550;5.418;2024-03-23T16:33:30;10.00;66.40
32296;DHT22;18781;51.550;5.418;2024-03-23T16:36:00;10.00;66.10
32296;DHT22;18781;51.550;5.418;2024-03-23T16:38:27;10.00;66.10
32296;DHT22;18781;51.550;5.418;2024-03-23T16:40:54;10.00;66.10
32296;DHT22;18781;51.550;5.418;2024-03-23T16:43:20;9.90;66.30